sensor_id;sensor_type;location;lat;lon;timestamp;P1;durP1;ratioP1;P2;durP2;ratioP2
78783;SDS011;68127;51.050;14.084;2023-04-24T00:01:05;7.90;;;4.32;;
78783;SDS011;68127;51.050;14.084;2023-04-24T00:03:32;6.32;;;3.90;;
78783;SDS011;68127;51.050;14.084;2023-04-24T00:05:57;6.88;;;3.88;;
78783;SDS011;68127;51.050;14.084;2023-04-24T00:08:23;9.85;;;4.30;;
78783;SDS011;68127;51.050;14.084;2023-04-24T00:10:49;7.80;;;4.50;;
78783;SDS011;68127;51.050;14.084;2023-04-24T00:13:14;6.68;;;4.10;;
78783;SDS011;68127;51.050;14.084;2023-04-24T00:15:39;7.03;;;4.13;;
78783;SDS011;68127;51.050;14.084;2023-04-24T00:18:05;6.63;;;3.97;;
78783;SDS011;68127;51.050;14.084;2023-04-24T00:20:30;6.28;;;3.95;;
78783;SDS011;68127;51.050;14.084;2023-04-24T00:22:57;5.43;;;3.78;;
78783;SDS011;68127;51.050;14.084;2023-04-24T00:25:22;8.27;;;4.60;;
78783;SDS011;68127;51.050;14.084;2023-04-24T00:27:48;6.20;;;4.13;;
78783;SDS011;68127;51.050;14.084;2023-04-24T00:30:13;7.35;;;4.38;;
78783;SDS011;68127;51.050;14.084;2023-04-24T00:32:38;7.80;;;4.38;;
78783;SDS011;68127;51.050;14.084;2023-04-24T00:35:04;7.88;;;4.30;;
78783;SDS011;68127;51.050;14.084;2023-04-24T00:37:30;6.47;;;4.10;;
78783;SDS011;68127;51.050;14.084;2023-04-24T00:39:56;5.70;;;3.85;;
78783;SDS011;68127;51.050;14.084;2023-04-24T00:42:22;7.65;;;4.68;;
78783;SDS011;68127;51.050;14.084;2023-04-24T00:44:47;7.43;;;4.20;;
78783;SDS011;68127;51.050;14.084;2023-04-24T00:47:13;7.35;;;4.65;;
78783;SDS011;68127;51.050;14.084;2023-04-24T00:49:39;6.55;;;4.20;;
78783;SDS011;68127;51.050;14.084;2023-04-24T00:52:04;6.05;;;4.35;;
78783;SDS011;68127;51.050;14.084;2023-04-24T00:54:32;7.75;;;4.68;;
78783;SDS011;68127;51.050;14.084;2023-04-24T00:56:57;7.38;;;4.43;;
78783;SDS011;68127;51.050;14.084;2023-04-24T00:59:23;7.85;;;4.80;;
78783;SDS011;68127;51.050;14.084;2023-04-24T01:01:48;8.02;;;4.38;;
78783;SDS011;68127;51.050;14.084;2023-04-24T01:04:13;7.45;;;4.70;;
78783;SDS011;68127;51.050;14.084;2023-04-24T01:06:39;10.02;;;6.28;;
78783;SDS011;68127;51.050;14.084;2023-04-24T01:09:05;9.68;;;5.00;;
78783;SDS011;68127;51.050;14.084;2023-04-24T01:11:30;8.07;;;5.30;;
78783;SDS011;68127;51.050;14.084;2023-04-24T01:13:56;8.68;;;5.07;;
78783;SDS011;68127;51.050;14.084;2023-04-24T01:16:21;8.95;;;5.03;;
78783;SDS011;68127;51.050;14.084;2023-04-24T01:18:47;7.60;;;4.50;;
78783;SDS011;68127;51.050;14.084;2023-04-24T01:21:14;8.18;;;4.85;;
78783;SDS011;68127;51.050;14.084;2023-04-24T01:23:49;8.43;;;4.75;;
78783;SDS011;68127;51.050;14.084;2023-04-24T01:26:16;8.68;;;4.93;;
78783;SDS011;68127;51.050;14.084;2023-04-24T01:28:42;7.97;;;4.55;;
78783;SDS011;68127;51.050;14.084;2023-04-24T01:31:07;8.82;;;4.47;;
78783;SDS011;68127;51.050;14.084;2023-04-24T01:33:33;9.73;;;5.35;;
78783;SDS011;68127;51.050;14.084;2023-04-24T01:35:58;8.25;;;5.28;;
78783;SDS011;68127;51.050;14.084;2023-04-24T01:38:23;8.07;;;5.28;;
78783;SDS011;68127;51.050;14.084;2023-04-24T01:40:49;8.32;;;5.55;;
78783;SDS011;68127;51.050;14.084;2023-04-24T01:43:15;7.55;;;5.30;;
78783;SDS011;68127;51.050;14.084;2023-04-24T01:45:40;7.75;;;5.43;;
78783;SDS011;68127;51.050;14.084;2023-04-24T01:48:05;7.32;;;4.90;;
78783;SDS011;68127;51.050;14.084;2023-04-24T01:50:31;8.73;;;5.30;;
78783;SDS011;68127;51.050;14.084;2023-04-24T01:52:56;9.65;;;5.85;;
78783;SDS011;68127;51.050;14.084;2023-04-24T01:55:22;9.30;;;6.00;;
78783;SDS011;68127;51.050;14.084;2023-04-24T01:57:47;8.60;;;5.75;;
78783;SDS011;68127;51.050;14.084;2023-04-24T02:00:12;9.13;;;5.75;;
78783;SDS011;68127;51.050;14.084;2023-04-24T02:02:41;7.95;;;5.43;;
78783;SDS011;68127;51.050;14.084;2023-04-24T02:05:07;8.73;;;5.97;;
78783;SDS011;68127;51.050;14.084;2023-04-24T02:07:33;8.95;;;5.47;;
78783;SDS011;68127;51.050;14.084;2023-04-24T02:09:58;9.75;;;5.68;;
78783;SDS011;68127;51.050;14.084;2023-04-24T02:12:23;8.68;;;5.70;;
78783;SDS011;68127;51.050;14.084;2023-04-24T02:14:49;8.10;;;6.03;;
78783;SDS011;68127;51.050;14.084;2023-04-24T02:17:14;9.23;;;5.90;;
78783;SDS011;68127;51.050;14.084;2023-04-24T02:19:41;8.00;;;5.40;;
78783;SDS011;68127;51.050;14.084;2023-04-24T02:22:06;10.10;;;5.65;;
78783;SDS011;68127;51.050;14.084;2023-04-24T02:24:31;7.90;;;5.57;;
78783;SDS011;68127;51.050;14.084;2023-04-24T02:26:56;7.32;;;5.25;;
78783;SDS011;68127;51.050;14.084;2023-04-24T02:29:22;8.88;;;5.50;;
78783;SDS011;68127;51.050;14.084;2023-04-24T02:31:48;8.25;;;5.47;;
78783;SDS011;68127;51.050;14.084;2023-04-24T02:34:13;8.50;;;5.78;;
78783;SDS011;68127;51.050;14.084;2023-04-24T02:36:38;8.65;;;5.80;;
78783;SDS011;68127;51.050;14.084;2023-04-24T02:39:04;9.85;;;5.40;;
78783;SDS011;68127;51.050;14.084;2023-04-24T02:41:29;8.02;;;4.93;;
78783;SDS011;68127;51.050;14.084;2023-04-24T02:43:57;7.07;;;5.03;;
78783;SDS011;68127;51.050;14.084;2023-04-24T02:46:22;10.00;;;5.60;;
78783;SDS011;68127;51.050;14.084;2023-04-24T02:48:48;9.02;;;5.32;;
78783;SDS011;68127;51.050;14.084;2023-04-24T02:51:13;8.25;;;5.35;;
78783;SDS011;68127;51.050;14.084;2023-04-24T02:53:38;8.63;;;4.97;;
78783;SDS011;68127;51.050;14.084;2023-04-24T02:56:03;7.63;;;5.20;;
78783;SDS011;68127;51.050;14.084;2023-04-24T02:58:29;8.60;;;5.43;;
78783;SDS011;68127;51.050;14.084;2023-04-24T03:00:55;9.55;;;5.60;;
78783;SDS011;68127;51.050;14.084;2023-04-24T03:03:21;9.00;;;5.20;;
78783;SDS011;68127;51.050;14.084;2023-04-24T03:05:46;9.38;;;5.60;;
78783;SDS011;68127;51.050;14.084;2023-04-24T03:08:12;8.30;;;5.72;;
78783;SDS011;68127;51.050;14.084;2023-04-24T03:10:37;10.40;;;6.13;;
78783;SDS011;68127;51.050;14.084;2023-04-24T03:13:02;9.00;;;5.78;;
78783;SDS011;68127;51.050;14.084;2023-04-24T03:15:28;10.85;;;6.22;;
78783;SDS011;68127;51.050;14.084;2023-04-24T03:17:53;9.57;;;6.43;;
78783;SDS011;68127;51.050;14.084;2023-04-24T03:20:18;9.40;;;5.90;;
78783;SDS011;68127;51.050;14.084;2023-04-24T03:22:43;9.65;;;6.22;;
78783;SDS011;68127;51.050;14.084;2023-04-24T03:25:09;9.63;;;6.03;;
78783;SDS011;68127;51.050;14.084;2023-04-24T03:27:34;9.15;;;6.25;;
78783;SDS011;68127;51.050;14.084;2023-04-24T03:30:00;10.00;;;6.38;;
78783;SDS011;68127;51.050;14.084;2023-04-24T03:32:25;11.07;;;7.25;;
78783;SDS011;68127;51.050;14.084;2023-04-24T03:34:51;11.40;;;7.32;;
78783;SDS011;68127;51.050;14.084;2023-04-24T03:37:16;10.45;;;7.22;;
78783;SDS011;68127;51.050;14.084;2023-04-24T03:39:42;11.02;;;7.18;;
78783;SDS011;68127;51.050;14.084;2023-04-24T03:42:07;11.70;;;7.60;;
78783;SDS011;68127;51.050;14.084;2023-04-24T03:44:33;9.38;;;7.35;;
78783;SDS011;68127;51.050;14.084;2023-04-24T03:46:59;12.30;;;7.80;;
78783;SDS011;68127;51.050;14.084;2023-04-24T03:49:24;10.93;;;8.23;;
78783;SDS011;68127;51.050;14.084;2023-04-24T03:51:49;11.18;;;7.47;;
78783;SDS011;68127;51.050;14.084;2023-04-24T03:54:15;10.77;;;6.82;;
78783;SDS011;68127;51.050;14.084;2023-04-24T03:56:40;11.23;;;7.80;;
78783;SDS011;68127;51.050;14.084;2023-04-24T03:59:06;12.60;;;8.35;;
78783;SDS011;68127;51.050;14.084;2023-04-24T04:01:31;11.82;;;8.43;;
78783;SDS011;68127;51.050;14.084;2023-04-24T04:03:56;10.73;;;8.30;;
78783;SDS011;68127;51.050;14.084;2023-04-24T04:06:21;9.93;;;7.88;;
78783;SDS011;68127;51.050;14.084;2023-04-24T04:08:47;10.63;;;8.10;;
78783;SDS011;68127;51.050;14.084;2023-04-24T04:11:12;10.82;;;7.65;;
78783;SDS011;68127;51.050;14.084;2023-04-24T04:13:37;11.30;;;8.38;;
78783;SDS011;68127;51.050;14.084;2023-04-24T04:16:03;9.07;;;6.10;;
78783;SDS011;68127;51.050;14.084;2023-04-24T04:18:28;9.60;;;6.05;;
78783;SDS011;68127;51.050;14.084;2023-04-24T04:20:53;8.68;;;5.65;;
78783;SDS011;68127;51.050;14.084;2023-04-24T04:23:19;9.98;;;6.00;;
78783;SDS011;68127;51.050;14.084;2023-04-24T04:25:44;9.70;;;6.13;;
78783;SDS011;68127;51.050;14.084;2023-04-24T04:28:09;10.02;;;6.30;;
78783;SDS011;68127;51.050;14.084;2023-04-24T04:30:35;7.63;;;5.70;;
78783;SDS011;68127;51.050;14.084;2023-04-24T04:33:03;9.00;;;6.55;;
78783;SDS011;68127;51.050;14.084;2023-04-24T04:35:28;8.98;;;6.13;;
78783;SDS011;68127;51.050;14.084;2023-04-24T04:37:53;7.90;;;5.88;;
78783;SDS011;68127;51.050;14.084;2023-04-24T04:40:18;7.72;;;5.75;;
78783;SDS011;68127;51.050;14.084;2023-04-24T04:42:44;8.98;;;6.18;;
78783;SDS011;68127;51.050;14.084;2023-04-24T04:45:10;9.25;;;5.85;;
78783;SDS011;68127;51.050;14.084;2023-04-24T04:47:36;7.55;;;5.60;;
78783;SDS011;68127;51.050;14.084;2023-04-24T04:50:02;9.18;;;5.93;;
78783;SDS011;68127;51.050;14.084;2023-04-24T04:52:28;7.75;;;5.72;;
78783;SDS011;68127;51.050;14.084;2023-04-24T04:54:53;7.25;;;4.97;;
78783;SDS011;68127;51.050;14.084;2023-04-24T04:57:19;6.43;;;4.22;;
78783;SDS011;68127;51.050;14.084;2023-04-24T04:59:45;8.48;;;4.15;;
78783;SDS011;68127;51.050;14.084;2023-04-24T05:02:10;6.03;;;4.00;;
78783;SDS011;68127;51.050;14.084;2023-04-24T05:04:36;6.35;;;4.63;;
78783;SDS011;68127;51.050;14.084;2023-04-24T05:07:01;7.90;;;4.70;;
78783;SDS011;68127;51.050;14.084;2023-04-24T05:09:27;7.78;;;4.60;;
78783;SDS011;68127;51.050;14.084;2023-04-24T05:11:54;5.90;;;4.22;;
78783;SDS011;68127;51.050;14.084;2023-04-24T05:14:20;6.82;;;4.18;;
78783;SDS011;68127;51.050;14.084;2023-04-24T05:16:45;6.07;;;4.30;;
78783;SDS011;68127;51.050;14.084;2023-04-24T05:19:11;6.85;;;4.57;;
78783;SDS011;68127;51.050;14.084;2023-04-24T05:21:36;6.90;;;4.53;;
78783;SDS011;68127;51.050;14.084;2023-04-24T05:24:02;6.82;;;4.25;;
78783;SDS011;68127;51.050;14.084;2023-04-24T05:26:27;6.40;;;3.60;;
78783;SDS011;68127;51.050;14.084;2023-04-24T05:28:52;5.13;;;3.28;;
78783;SDS011;68127;51.050;14.084;2023-04-24T05:31:18;5.07;;;3.33;;
78783;SDS011;68127;51.050;14.084;2023-04-24T05:33:43;5.88;;;3.13;;
78783;SDS011;68127;51.050;14.084;2023-04-24T05:36:08;6.43;;;3.38;;
78783;SDS011;68127;51.050;14.084;2023-04-24T05:38:33;6.75;;;2.90;;
78783;SDS011;68127;51.050;14.084;2023-04-24T05:40:59;4.22;;;2.72;;
78783;SDS011;68127;51.050;14.084;2023-04-24T05:43:24;7.15;;;2.78;;
78783;SDS011;68127;51.050;14.084;2023-04-24T05:45:50;8.05;;;2.90;;
78783;SDS011;68127;51.050;14.084;2023-04-24T05:48:15;5.40;;;2.92;;
78783;SDS011;68127;51.050;14.084;2023-04-24T05:50:40;6.60;;;2.65;;
78783;SDS011;68127;51.050;14.084;2023-04-24T05:53:06;4.00;;;2.00;;
78783;SDS011;68127;51.050;14.084;2023-04-24T05:55:32;4.45;;;2.40;;
78783;SDS011;68127;51.050;14.084;2023-04-24T05:57:57;3.78;;;2.22;;
78783;SDS011;68127;51.050;14.084;2023-04-24T06:00:23;4.40;;;2.40;;
78783;SDS011;68127;51.050;14.084;2023-04-24T06:02:49;4.47;;;2.20;;
78783;SDS011;68127;51.050;14.084;2023-04-24T06:05:14;4.13;;;2.00;;
78783;SDS011;68127;51.050;14.084;2023-04-24T06:07:39;3.63;;;1.65;;
78783;SDS011;68127;51.050;14.084;2023-04-24T06:10:05;3.88;;;2.08;;
78783;SDS011;68127;51.050;14.084;2023-04-24T06:12:30;4.05;;;1.85;;
78783;SDS011;68127;51.050;14.084;2023-04-24T06:14:56;4.75;;;2.10;;
78783;SDS011;68127;51.050;14.084;2023-04-24T06:17:21;6.57;;;2.00;;
78783;SDS011;68127;51.050;14.084;2023-04-24T06:19:46;6.45;;;2.03;;
78783;SDS011;68127;51.050;14.084;2023-04-24T06:22:12;4.00;;;2.22;;
78783;SDS011;68127;51.050;14.084;2023-04-24T06:24:37;4.25;;;1.95;;
78783;SDS011;68127;51.050;14.084;2023-04-24T06:27:03;4.40;;;1.85;;
78783;SDS011;68127;51.050;14.084;2023-04-24T06:29:28;4.13;;;1.90;;
78783;SDS011;68127;51.050;14.084;2023-04-24T06:31:53;3.45;;;1.92;;
78783;SDS011;68127;51.050;14.084;2023-04-24T06:34:18;4.55;;;2.17;;
78783;SDS011;68127;51.050;14.084;2023-04-24T06:36:44;5.45;;;1.90;;
78783;SDS011;68127;51.050;14.084;2023-04-24T06:39:09;3.10;;;1.77;;
78783;SDS011;68127;51.050;14.084;2023-04-24T06:41:35;3.63;;;1.80;;
78783;SDS011;68127;51.050;14.084;2023-04-24T06:44:00;3.17;;;1.70;;
78783;SDS011;68127;51.050;14.084;2023-04-24T06:46:26;3.70;;;1.73;;
78783;SDS011;68127;51.050;14.084;2023-04-24T06:48:53;3.60;;;1.80;;
78783;SDS011;68127;51.050;14.084;2023-04-24T06:51:37;3.08;;;1.70;;
78783;SDS011;68127;51.050;14.084;2023-04-24T06:54:02;3.55;;;1.70;;
78783;SDS011;68127;51.050;14.084;2023-04-24T06:56:27;3.22;;;1.50;;
78783;SDS011;68127;51.050;14.084;2023-04-24T06:58:54;2.78;;;1.40;;
78783;SDS011;68127;51.050;14.084;2023-04-24T07:01:19;2.17;;;1.50;;
78783;SDS011;68127;51.050;14.084;2023-04-24T07:03:44;2.20;;;1.40;;
78783;SDS011;68127;51.050;14.084;2023-04-24T07:06:10;2.42;;;1.45;;
78783;SDS011;68127;51.050;14.084;2023-04-24T07:08:36;167.55;;;22.25;;
78783;SDS011;68127;51.050;14.084;2023-04-24T07:11:01;8.57;;;2.65;;
78783;SDS011;68127;51.050;14.084;2023-04-24T07:13:27;3.97;;;1.35;;
78783;SDS011;68127;51.050;14.084;2023-04-24T07:15:53;3.35;;;1.77;;
78783;SDS011;68127;51.050;14.084;2023-04-24T07:18:20;3.65;;;2.15;;
78783;SDS011;68127;51.050;14.084;2023-04-24T07:20:45;4.68;;;2.60;;
78783;SDS011;68127;51.050;14.084;2023-04-24T07:23:11;5.68;;;2.95;;
78783;SDS011;68127;51.050;14.084;2023-04-24T07:25:36;5.43;;;3.20;;
78783;SDS011;68127;51.050;14.084;2023-04-24T07:28:01;5.45;;;3.70;;
78783;SDS011;68127;51.050;14.084;2023-04-24T07:30:27;7.07;;;3.40;;
78783;SDS011;68127;51.050;14.084;2023-04-24T07:32:54;6.28;;;3.60;;
78783;SDS011;68127;51.050;14.084;2023-04-24T07:35:19;5.65;;;3.53;;
78783;SDS011;68127;51.050;14.084;2023-04-24T07:37:48;5.70;;;3.47;;
78783;SDS011;68127;51.050;14.084;2023-04-24T07:40:13;5.63;;;3.38;;
78783;SDS011;68127;51.050;14.084;2023-04-24T07:42:38;6.22;;;3.50;;
78783;SDS011;68127;51.050;14.084;2023-04-24T07:45:04;11.88;;;4.15;;
78783;SDS011;68127;51.050;14.084;2023-04-24T07:47:30;6.45;;;3.80;;
78783;SDS011;68127;51.050;14.084;2023-04-24T07:49:56;9.90;;;5.50;;
78783;SDS011;68127;51.050;14.084;2023-04-24T07:52:21;6.60;;;4.20;;
78783;SDS011;68127;51.050;14.084;2023-04-24T07:54:46;7.10;;;4.10;;
78783;SDS011;68127;51.050;14.084;2023-04-24T07:57:11;6.57;;;4.10;;
78783;SDS011;68127;51.050;14.084;2023-04-24T07:59:37;6.70;;;4.13;;
78783;SDS011;68127;51.050;14.084;2023-04-24T08:02:02;8.18;;;4.70;;
78783;SDS011;68127;51.050;14.084;2023-04-24T08:04:27;6.80;;;3.88;;
78783;SDS011;68127;51.050;14.084;2023-04-24T08:06:55;6.00;;;3.83;;
78783;SDS011;68127;51.050;14.084;2023-04-24T08:09:20;8.07;;;4.70;;
78783;SDS011;68127;51.050;14.084;2023-04-24T08:11:46;7.65;;;4.63;;
78783;SDS011;68127;51.050;14.084;2023-04-24T08:14:11;5.65;;;3.83;;
78783;SDS011;68127;51.050;14.084;2023-04-24T08:16:38;7.95;;;5.20;;
78783;SDS011;68127;51.050;14.084;2023-04-24T08:19:03;7.75;;;5.00;;
78783;SDS011;68127;51.050;14.084;2023-04-24T08:21:28;11.68;;;5.38;;
78783;SDS011;68127;51.050;14.084;2023-04-24T08:23:53;7.80;;;4.95;;
78783;SDS011;68127;51.050;14.084;2023-04-24T08:26:19;7.85;;;4.60;;
78783;SDS011;68127;51.050;14.084;2023-04-24T08:28:44;8.63;;;4.80;;
78783;SDS011;68127;51.050;14.084;2023-04-24T08:31:10;8.45;;;4.55;;
78783;SDS011;68127;51.050;14.084;2023-04-24T08:33:35;11.82;;;4.63;;
78783;SDS011;68127;51.050;14.084;2023-04-24T08:36:04;7.68;;;3.85;;
78783;SDS011;68127;51.050;14.084;2023-04-24T08:38:30;7.63;;;4.13;;
78783;SDS011;68127;51.050;14.084;2023-04-24T08:40:56;8.82;;;4.90;;
78783;SDS011;68127;51.050;14.084;2023-04-24T08:43:22;6.20;;;3.65;;
78783;SDS011;68127;51.050;14.084;2023-04-24T08:45:48;5.85;;;3.50;;
78783;SDS011;68127;51.050;14.084;2023-04-24T08:48:13;7.20;;;3.38;;
78783;SDS011;68127;51.050;14.084;2023-04-24T08:50:39;5.72;;;3.45;;
78783;SDS011;68127;51.050;14.084;2023-04-24T08:53:07;8.68;;;3.75;;
78783;SDS011;68127;51.050;14.084;2023-04-24T08:55:33;5.95;;;3.72;;
78783;SDS011;68127;51.050;14.084;2023-04-24T08:57:59;7.97;;;3.60;;
78783;SDS011;68127;51.050;14.084;2023-04-24T09:00:24;7.95;;;3.80;;
78783;SDS011;68127;51.050;14.084;2023-04-24T09:02:50;6.82;;;3.60;;
78783;SDS011;68127;51.050;14.084;2023-04-24T09:05:18;5.53;;;3.22;;
78783;SDS011;68127;51.050;14.084;2023-04-24T09:07:48;5.28;;;2.97;;
78783;SDS011;68127;51.050;14.084;2023-04-24T09:10:15;7.68;;;2.90;;
78783;SDS011;68127;51.050;14.084;2023-04-24T09:12:40;5.80;;;3.30;;
78783;SDS011;68127;51.050;14.084;2023-04-24T09:15:06;8.63;;;4.43;;
78783;SDS011;68127;51.050;14.084;2023-04-24T09:17:32;8.55;;;5.35;;
78783;SDS011;68127;51.050;14.084;2023-04-24T09:19:58;9.00;;;5.50;;
78783;SDS011;68127;51.050;14.084;2023-04-24T09:22:23;9.70;;;6.35;;
78783;SDS011;68127;51.050;14.084;2023-04-24T09:24:48;9.27;;;5.47;;
78783;SDS011;68127;51.050;14.084;2023-04-24T09:27:24;9.57;;;5.75;;
78783;SDS011;68127;51.050;14.084;2023-04-24T09:29:53;10.70;;;6.55;;
78783;SDS011;68127;51.050;14.084;2023-04-24T09:32:22;9.23;;;6.00;;
78783;SDS011;68127;51.050;14.084;2023-04-24T09:34:49;9.48;;;6.00;;
78783;SDS011;68127;51.050;14.084;2023-04-24T09:37:28;9.20;;;5.82;;
78783;SDS011;68127;51.050;14.084;2023-04-24T09:40:10;8.90;;;5.47;;
78783;SDS011;68127;51.050;14.084;2023-04-24T09:42:42;9.15;;;5.57;;
78783;SDS011;68127;51.050;14.084;2023-04-24T09:45:09;13.75;;;5.85;;
78783;SDS011;68127;51.050;14.084;2023-04-24T09:47:40;7.35;;;4.93;;
78783;SDS011;68127;51.050;14.084;2023-04-24T09:50:15;7.53;;;5.03;;
78783;SDS011;68127;51.050;14.084;2023-04-24T09:52:45;10.57;;;5.22;;
78783;SDS011;68127;51.050;14.084;2023-04-24T09:55:16;7.50;;;4.32;;
78783;SDS011;68127;51.050;14.084;2023-04-24T09:57:46;8.95;;;5.78;;
78783;SDS011;68127;51.050;14.084;2023-04-24T10:00:21;9.32;;;4.68;;
78783;SDS011;68127;51.050;14.084;2023-04-24T10:02:50;8.85;;;4.95;;
78783;SDS011;68127;51.050;14.084;2023-04-24T10:05:22;8.55;;;4.90;;
78783;SDS011;68127;51.050;14.084;2023-04-24T10:07:48;8.13;;;4.65;;
78783;SDS011;68127;51.050;14.084;2023-04-24T10:10:13;7.00;;;4.28;;
78783;SDS011;68127;51.050;14.084;2023-04-24T10:12:39;6.25;;;4.13;;
78783;SDS011;68127;51.050;14.084;2023-04-24T10:15:04;6.07;;;4.07;;
78783;SDS011;68127;51.050;14.084;2023-04-24T10:17:30;8.10;;;4.20;;
78783;SDS011;68127;51.050;14.084;2023-04-24T10:19:56;6.72;;;4.72;;
78783;SDS011;68127;51.050;14.084;2023-04-24T10:22:22;6.53;;;4.32;;
78783;SDS011;68127;51.050;14.084;2023-04-24T10:24:47;8.52;;;5.15;;
78783;SDS011;68127;51.050;14.084;2023-04-24T10:27:14;7.97;;;5.80;;
78783;SDS011;68127;51.050;14.084;2023-04-24T10:29:40;7.28;;;4.72;;
78783;SDS011;68127;51.050;14.084;2023-04-24T10:32:06;8.98;;;4.63;;
78783;SDS011;68127;51.050;14.084;2023-04-24T10:34:32;9.18;;;5.15;;
78783;SDS011;68127;51.050;14.084;2023-04-24T10:36:57;7.95;;;5.15;;
78783;SDS011;68127;51.050;14.084;2023-04-24T10:39:22;5.97;;;4.70;;
78783;SDS011;68127;51.050;14.084;2023-04-24T10:41:49;7.43;;;5.15;;
78783;SDS011;68127;51.050;14.084;2023-04-24T10:44:15;8.20;;;4.97;;
78783;SDS011;68127;51.050;14.084;2023-04-24T10:46:42;7.50;;;5.15;;
78783;SDS011;68127;51.050;14.084;2023-04-24T10:49:08;7.82;;;5.35;;
78783;SDS011;68127;51.050;14.084;2023-04-24T10:51:47;6.70;;;4.57;;
78783;SDS011;68127;51.050;14.084;2023-04-24T10:56:51;6.97;;;4.88;;
78783;SDS011;68127;51.050;14.084;2023-04-24T10:59:27;6.90;;;5.20;;
78783;SDS011;68127;51.050;14.084;2023-04-24T11:01:53;7.38;;;4.53;;
78783;SDS011;68127;51.050;14.084;2023-04-24T11:04:28;7.55;;;5.60;;
78783;SDS011;68127;51.050;14.084;2023-04-24T11:06:55;6.75;;;5.22;;
78783;SDS011;68127;51.050;14.084;2023-04-24T11:09:20;8.30;;;5.63;;
78783;SDS011;68127;51.050;14.084;2023-04-24T11:11:47;7.78;;;5.30;;
78783;SDS011;68127;51.050;14.084;2023-04-24T11:14:15;7.10;;;5.40;;
78783;SDS011;68127;51.050;14.084;2023-04-24T11:16:56;6.82;;;5.06;;
78783;SDS011;68127;51.050;14.084;2023-04-24T11:19:25;10.48;;;5.72;;
78783;SDS011;68127;51.050;14.084;2023-04-24T11:21:55;6.85;;;5.15;;
78783;SDS011;68127;51.050;14.084;2023-04-24T11:24:23;7.85;;;4.68;;
78783;SDS011;68127;51.050;14.084;2023-04-24T11:26:51;6.72;;;5.03;;
78783;SDS011;68127;51.050;14.084;2023-04-24T11:29:17;5.53;;;4.30;;
78783;SDS011;68127;51.050;14.084;2023-04-24T11:31:44;5.72;;;4.45;;
78783;SDS011;68127;51.050;14.084;2023-04-24T11:34:16;7.35;;;4.50;;
78783;SDS011;68127;51.050;14.084;2023-04-24T11:36:42;7.45;;;4.95;;
78783;SDS011;68127;51.050;14.084;2023-04-24T11:39:08;8.25;;;4.68;;
78783;SDS011;68127;51.050;14.084;2023-04-24T11:41:35;7.57;;;4.78;;
78783;SDS011;68127;51.050;14.084;2023-04-24T11:44:00;7.80;;;4.47;;
78783;SDS011;68127;51.050;14.084;2023-04-24T11:46:27;5.85;;;4.57;;
78783;SDS011;68127;51.050;14.084;2023-04-24T11:48:53;5.30;;;3.65;;
78783;SDS011;68127;51.050;14.084;2023-04-24T11:51:18;5.60;;;3.80;;
78783;SDS011;68127;51.050;14.084;2023-04-24T11:53:44;5.47;;;3.88;;
78783;SDS011;68127;51.050;14.084;2023-04-24T11:56:09;5.57;;;3.70;;
78783;SDS011;68127;51.050;14.084;2023-04-24T11:58:35;5.25;;;3.38;;
78783;SDS011;68127;51.050;14.084;2023-04-24T12:01:01;5.22;;;3.63;;
78783;SDS011;68127;51.050;14.084;2023-04-24T12:03:26;5.32;;;3.30;;
78783;SDS011;68127;51.050;14.084;2023-04-24T12:05:52;5.45;;;3.67;;
78783;SDS011;68127;51.050;14.084;2023-04-24T12:08:27;5.50;;;3.20;;
78783;SDS011;68127;51.050;14.084;2023-04-24T12:10:53;4.80;;;3.00;;
78783;SDS011;68127;51.050;14.084;2023-04-24T12:13:18;4.07;;;2.58;;
78783;SDS011;68127;51.050;14.084;2023-04-24T12:15:44;4.43;;;2.70;;
78783;SDS011;68127;51.050;14.084;2023-04-24T12:18:11;3.75;;;2.50;;
78783;SDS011;68127;51.050;14.084;2023-04-24T12:20:37;4.22;;;2.70;;
78783;SDS011;68127;51.050;14.084;2023-04-24T12:23:02;6.00;;;2.35;;
78783;SDS011;68127;51.050;14.084;2023-04-24T12:25:28;7.80;;;3.35;;
78783;SDS011;68127;51.050;14.084;2023-04-24T12:27:55;5.65;;;2.78;;
78783;SDS011;68127;51.050;14.084;2023-04-24T12:30:40;4.43;;;1.92;;
78783;SDS011;68127;51.050;14.084;2023-04-24T12:35:35;3.20;;;1.00;;
78783;SDS011;68127;51.050;14.084;2023-04-24T12:38:09;1.52;;;0.88;;
78783;SDS011;68127;51.050;14.084;2023-04-24T12:40:36;3.80;;;1.27;;
78783;SDS011;68127;51.050;14.084;2023-04-24T12:43:01;2.20;;;1.10;;
78783;SDS011;68127;51.050;14.084;2023-04-24T12:45:27;1.45;;;1.05;;
78783;SDS011;68127;51.050;14.084;2023-04-24T12:47:53;2.28;;;1.35;;
78783;SDS011;68127;51.050;14.084;2023-04-24T12:50:18;2.35;;;1.20;;
78783;SDS011;68127;51.050;14.084;2023-04-24T12:52:44;3.15;;;1.08;;
78783;SDS011;68127;51.050;14.084;2023-04-24T12:55:09;2.22;;;1.02;;
78783;SDS011;68127;51.050;14.084;2023-04-24T12:57:35;2.40;;;1.13;;
78783;SDS011;68127;51.050;14.084;2023-04-24T13:00:02;1.73;;;1.10;;
78783;SDS011;68127;51.050;14.084;2023-04-24T13:02:29;2.75;;;1.30;;
78783;SDS011;68127;51.050;14.084;2023-04-24T13:04:56;3.22;;;1.58;;
78783;SDS011;68127;51.050;14.084;2023-04-24T13:07:21;4.00;;;1.50;;
78783;SDS011;68127;51.050;14.084;2023-04-24T13:09:47;3.10;;;1.50;;
78783;SDS011;68127;51.050;14.084;2023-04-24T13:12:13;1.85;;;1.10;;
78783;SDS011;68127;51.050;14.084;2023-04-24T13:14:39;6.20;;;2.50;;
78783;SDS011;68127;51.050;14.084;2023-04-24T13:17:04;10.73;;;3.92;;
78783;SDS011;68127;51.050;14.084;2023-04-24T13:19:34;2.40;;;1.20;;
78783;SDS011;68127;51.050;14.084;2023-04-24T13:22:00;2.25;;;1.20;;
78783;SDS011;68127;51.050;14.084;2023-04-24T13:24:25;3.92;;;1.88;;
78783;SDS011;68127;51.050;14.084;2023-04-24T13:26:51;3.90;;;1.60;;
78783;SDS011;68127;51.050;14.084;2023-04-24T13:29:17;3.90;;;2.17;;
78783;SDS011;68127;51.050;14.084;2023-04-24T13:31:42;3.30;;;2.03;;
78783;SDS011;68127;51.050;14.084;2023-04-24T13:34:07;4.65;;;1.50;;
78783;SDS011;68127;51.050;14.084;2023-04-24T13:36:33;3.53;;;2.05;;
78783;SDS011;68127;51.050;14.084;2023-04-24T13:38:58;3.25;;;1.40;;
78783;SDS011;68127;51.050;14.084;2023-04-24T13:41:23;2.15;;;1.30;;
78783;SDS011;68127;51.050;14.084;2023-04-24T13:43:49;3.25;;;1.50;;
78783;SDS011;68127;51.050;14.084;2023-04-24T13:46:14;5.40;;;1.30;;
78783;SDS011;68127;51.050;14.084;2023-04-24T13:48:39;6.05;;;2.13;;
78783;SDS011;68127;51.050;14.084;2023-04-24T13:51:05;4.00;;;1.40;;
78783;SDS011;68127;51.050;14.084;2023-04-24T13:53:30;2.75;;;1.42;;
78783;SDS011;68127;51.050;14.084;2023-04-24T13:55:55;3.25;;;1.38;;
78783;SDS011;68127;51.050;14.084;2023-04-24T13:58:21;3.17;;;1.55;;
78783;SDS011;68127;51.050;14.084;2023-04-24T14:00:46;3.25;;;1.92;;
78783;SDS011;68127;51.050;14.084;2023-04-24T14:03:11;7.35;;;3.03;;
78783;SDS011;68127;51.050;14.084;2023-04-24T14:05:36;4.18;;;1.95;;
78783;SDS011;68127;51.050;14.084;2023-04-24T14:08:02;5.25;;;1.88;;
78783;SDS011;68127;51.050;14.084;2023-04-24T14:10:27;3.70;;;1.60;;
78783;SDS011;68127;51.050;14.084;2023-04-24T14:12:53;2.88;;;1.40;;
78783;SDS011;68127;51.050;14.084;2023-04-24T14:15:18;2.30;;;1.45;;
78783;SDS011;68127;51.050;14.084;2023-04-24T14:17:43;3.58;;;1.50;;
78783;SDS011;68127;51.050;14.084;2023-04-24T14:20:09;3.58;;;1.90;;
78783;SDS011;68127;51.050;14.084;2023-04-24T14:22:35;3.83;;;1.50;;
78783;SDS011;68127;51.050;14.084;2023-04-24T14:25:00;3.15;;;1.70;;
78783;SDS011;68127;51.050;14.084;2023-04-24T14:27:25;3.72;;;2.53;;
78783;SDS011;68127;51.050;14.084;2023-04-24T14:29:51;4.30;;;1.70;;
78783;SDS011;68127;51.050;14.084;2023-04-24T14:32:16;2.13;;;1.48;;